sensor_id;sensor_type;location;lat;lon;timestamp;P1;durP1;ratioP1;P2;durP2;ratioP2
84138;SDS011;74250;51.528;6.748;2024-01-16T00:01:42;8.13;;;4.07;;
84138;SDS011;74250;51.528;6.748;2024-01-16T00:04:08;7.22;;;3.50;;
84138;SDS011;74250;51.528;6.748;2024-01-16T00:06:38;8.77;;;3.72;;
84138;SDS011;74250;51.528;6.748;2024-01-16T00:09:07;12.48;;;3.42;;
84138;SDS011;74250;51.528;6.748;2024-01-16T00:11:34;8.07;;;3.75;;
84138;SDS011;74250;51.528;6.748;2024-01-16T00:14:04;6.03;;;3.58;;
84138;SDS011;74250;51.528;6.748;2024-01-16T00:16:30;8.23;;;3.17;;
84138;SDS011;74250;51.528;6.748;2024-01-16T00:18:55;10.57;;;3.95;;
84138;SDS011;74250;51.528;6.748;2024-01-16T00:21:20;7.53;;;3.50;;
84138;SDS011;74250;51.528;6.748;2024-01-16T00:23:46;8.73;;;3.05;;
84138;SDS011;74250;51.528;6.748;2024-01-16T00:26:21;6.97;;;4.18;;
84138;SDS011;74250;51.528;6.748;2024-01-16T00:28:47;7.07;;;2.88;;
84138;SDS011;74250;51.528;6.748;2024-01-16T00:31:13;8.20;;;4.13;;
84138;SDS011;74250;51.528;6.748;2024-01-16T00:33:38;8.00;;;3.03;;
84138;SDS011;74250;51.528;6.748;2024-01-16T00:36:04;6.78;;;2.88;;
84138;SDS011;74250;51.528;6.748;2024-01-16T00:38:32;7.70;;;2.83;;
84138;SDS011;74250;51.528;6.748;2024-01-16T00:40:58;7.30;;;4.45;;
84138;SDS011;74250;51.528;6.748;2024-01-16T00:43:23;6.00;;;2.47;;
84138;SDS011;74250;51.528;6.748;2024-01-16T00:45:49;7.32;;;2.53;;
84138;SDS011;74250;51.528;6.748;2024-01-16T00:48:14;5.20;;;3.00;;
84138;SDS011;74250;51.528;6.748;2024-01-16T00:50:40;10.57;;;3.30;;
84138;SDS011;74250;51.528;6.748;2024-01-16T00:53:06;5.90;;;2.70;;
84138;SDS011;74250;51.528;6.748;2024-01-16T00:55:31;5.93;;;3.53;;
84138;SDS011;74250;51.528;6.748;2024-01-16T00:57:57;8.40;;;4.60;;
84138;SDS011;74250;51.528;6.748;2024-01-16T01:00:22;8.00;;;4.50;;
84138;SDS011;74250;51.528;6.748;2024-01-16T01:02:47;7.30;;;2.20;;
84138;SDS011;74250;51.528;6.748;2024-01-16T01:05:13;7.32;;;4.25;;
84138;SDS011;74250;51.528;6.748;2024-01-16T01:07:38;9.07;;;4.32;;
84138;SDS011;74250;51.528;6.748;2024-01-16T01:10:03;8.60;;;3.28;;
84138;SDS011;74250;51.528;6.748;2024-01-16T01:12:29;5.68;;;2.72;;
84138;SDS011;74250;51.528;6.748;2024-01-16T01:14:54;7.85;;;3.13;;
84138;SDS011;74250;51.528;6.748;2024-01-16T01:17:21;7.50;;;3.33;;
84138;SDS011;74250;51.528;6.748;2024-01-16T01:19:46;8.02;;;3.22;;
84138;SDS011;74250;51.528;6.748;2024-01-16T01:22:12;6.80;;;3.88;;
84138;SDS011;74250;51.528;6.748;2024-01-16T01:24:37;8.23;;;3.35;;
84138;SDS011;74250;51.528;6.748;2024-01-16T01:27:03;6.00;;;3.05;;
84138;SDS011;74250;51.528;6.748;2024-01-16T01:29:28;8.32;;;2.95;;
84138;SDS011;74250;51.528;6.748;2024-01-16T01:31:54;7.40;;;3.05;;
84138;SDS011;74250;51.528;6.748;2024-01-16T01:34:19;9.40;;;3.30;;
84138;SDS011;74250;51.528;6.748;2024-01-16T01:36:44;6.95;;;3.22;;
84138;SDS011;74250;51.528;6.748;2024-01-16T01:39:10;8.50;;;3.65;;
84138;SDS011;74250;51.528;6.748;2024-01-16T01:41:38;5.47;;;3.60;;
84138;SDS011;74250;51.528;6.748;2024-01-16T01:44:05;8.88;;;3.20;;
84138;SDS011;74250;51.528;6.748;2024-01-16T01:46:30;6.13;;;2.85;;
84138;SDS011;74250;51.528;6.748;2024-01-16T01:49:00;8.80;;;3.70;;
84138;SDS011;74250;51.528;6.748;2024-01-16T01:51:25;7.32;;;2.92;;
84138;SDS011;74250;51.528;6.748;2024-01-16T01:53:51;8.05;;;3.38;;
84138;SDS011;74250;51.528;6.748;2024-01-16T01:56:18;6.80;;;4.05;;
84138;SDS011;74250;51.528;6.748;2024-01-16T01:58:45;6.57;;;3.15;;
84138;SDS011;74250;51.528;6.748;2024-01-16T02:01:11;7.60;;;3.35;;
84138;SDS011;74250;51.528;6.748;2024-01-16T02:03:39;7.03;;;2.78;;
84138;SDS011;74250;51.528;6.748;2024-01-16T02:06:06;10.77;;;3.22;;
84138;SDS011;74250;51.528;6.748;2024-01-16T02:08:32;6.65;;;3.55;;
84138;SDS011;74250;51.528;6.748;2024-01-16T02:10:58;9.75;;;3.13;;
84138;SDS011;74250;51.528;6.748;2024-01-16T02:13:23;7.68;;;2.47;;
84138;SDS011;74250;51.528;6.748;2024-01-16T02:15:52;8.02;;;4.47;;
84138;SDS011;74250;51.528;6.748;2024-01-16T02:18:17;7.22;;;3.47;;
84138;SDS011;74250;51.528;6.748;2024-01-16T02:20:46;7.18;;;3.47;;
84138;SDS011;74250;51.528;6.748;2024-01-16T02:23:12;7.63;;;3.20;;
84138;SDS011;74250;51.528;6.748;2024-01-16T02:25:39;7.55;;;3.55;;
84138;SDS011;74250;51.528;6.748;2024-01-16T02:28:08;8.23;;;3.38;;
84138;SDS011;74250;51.528;6.748;2024-01-16T02:30:34;7.88;;;3.28;;
84138;SDS011;74250;51.528;6.748;2024-01-16T02:32:59;8.45;;;4.03;;
84138;SDS011;74250;51.528;6.748;2024-01-16T02:35:24;7.15;;;3.90;;
84138;SDS011;74250;51.528;6.748;2024-01-16T02:37:50;8.50;;;2.83;;
84138;SDS011;74250;51.528;6.748;2024-01-16T02:40:15;7.68;;;3.45;;
84138;SDS011;74250;51.528;6.748;2024-01-16T02:42:41;8.82;;;3.80;;
84138;SDS011;74250;51.528;6.748;2024-01-16T02:45:06;11.00;;;3.70;;
84138;SDS011;74250;51.528;6.748;2024-01-16T02:47:32;9.07;;;4.50;;
84138;SDS011;74250;51.528;6.748;2024-01-16T02:49:58;7.80;;;4.80;;
84138;SDS011;74250;51.528;6.748;2024-01-16T02:52:24;7.07;;;3.40;;
84138;SDS011;74250;51.528;6.748;2024-01-16T02:54:50;10.43;;;3.88;;
84138;SDS011;74250;51.528;6.748;2024-01-16T02:57:15;7.97;;;4.13;;
84138;SDS011;74250;51.528;6.748;2024-01-16T02:59:43;9.68;;;4.03;;
84138;SDS011;74250;51.528;6.748;2024-01-16T03:02:09;9.90;;;4.38;;
84138;SDS011;74250;51.528;6.748;2024-01-16T03:04:36;6.72;;;4.20;;
84138;SDS011;74250;51.528;6.748;2024-01-16T03:07:02;7.28;;;4.45;;
84138;SDS011;74250;51.528;6.748;2024-01-16T03:09:27;7.30;;;4.88;;
84138;SDS011;74250;51.528;6.748;2024-01-16T03:11:53;10.55;;;5.00;;
84138;SDS011;74250;51.528;6.748;2024-01-16T03:14:18;11.18;;;5.10;;
84138;SDS011;74250;51.528;6.748;2024-01-16T03:16:44;10.32;;;5.10;;
84138;SDS011;74250;51.528;6.748;2024-01-16T03:19:10;11.68;;;5.03;;
84138;SDS011;74250;51.528;6.748;2024-01-16T03:24:02;7.05;;;4.95;;
84138;SDS011;74250;51.528;6.748;2024-01-16T03:26:28;8.15;;;4.53;;
84138;SDS011;74250;51.528;6.748;2024-01-16T03:28:53;9.02;;;5.03;;
84138;SDS011;74250;51.528;6.748;2024-01-16T03:31:19;9.27;;;4.75;;
84138;SDS011;74250;51.528;6.748;2024-01-16T03:33:46;7.15;;;5.38;;
84138;SDS011;74250;51.528;6.748;2024-01-16T03:36:11;10.38;;;5.40;;
84138;SDS011;74250;51.528;6.748;2024-01-16T03:38:39;9.38;;;4.90;;
84138;SDS011;74250;51.528;6.748;2024-01-16T03:43:32;10.57;;;5.07;;
84138;SDS011;74250;51.528;6.748;2024-01-16T03:45:59;9.90;;;6.70;;
84138;SDS011;74250;51.528;6.748;2024-01-16T03:48:24;14.55;;;5.93;;
84138;SDS011;74250;51.528;6.748;2024-01-16T03:50:50;9.70;;;4.55;;
84138;SDS011;74250;51.528;6.748;2024-01-16T03:53:15;9.68;;;4.70;;
84138;SDS011;74250;51.528;6.748;2024-01-16T03:55:40;12.23;;;5.15;;
84138;SDS011;74250;51.528;6.748;2024-01-16T03:58:06;10.65;;;5.63;;
84138;SDS011;74250;51.528;6.748;2024-01-16T04:00:31;11.98;;;5.47;;
84138;SDS011;74250;51.528;6.748;2024-01-16T04:02:57;9.80;;;5.72;;
84138;SDS011;74250;51.528;6.748;2024-01-16T04:05:22;7.97;;;5.30;;
84138;SDS011;74250;51.528;6.748;2024-01-16T04:07:47;13.65;;;5.47;;
84138;SDS011;74250;51.528;6.748;2024-01-16T04:10:13;11.95;;;5.38;;
84138;SDS011;74250;51.528;6.748;2024-01-16T04:12:38;10.93;;;5.22;;
84138;SDS011;74250;51.528;6.748;2024-01-16T04:15:03;13.38;;;8.15;;
84138;SDS011;74250;51.528;6.748;2024-01-16T04:17:29;11.68;;;6.53;;
84138;SDS011;74250;51.528;6.748;2024-01-16T04:19:54;13.43;;;5.20;;
84138;SDS011;74250;51.528;6.748;2024-01-16T04:22:20;9.85;;;5.95;;
84138;SDS011;74250;51.528;6.748;2024-01-16T04:24:45;8.52;;;6.22;;
84138;SDS011;74250;51.528;6.748;2024-01-16T04:27:12;15.68;;;5.30;;
84138;SDS011;74250;51.528;6.748;2024-01-16T04:29:37;8.15;;;4.43;;
84138;SDS011;74250;51.528;6.748;2024-01-16T04:32:03;11.65;;;4.03;;
84138;SDS011;74250;51.528;6.748;2024-01-16T04:34:29;11.10;;;3.42;;
84138;SDS011;74250;51.528;6.748;2024-01-16T04:36:56;9.60;;;3.67;;
84138;SDS011;74250;51.528;6.748;2024-01-16T04:39:21;7.07;;;4.05;;
84138;SDS011;74250;51.528;6.748;2024-01-16T04:41:49;9.15;;;3.78;;
84138;SDS011;74250;51.528;6.748;2024-01-16T04:44:14;7.07;;;2.97;;
84138;SDS011;74250;51.528;6.748;2024-01-16T04:46:40;8.82;;;4.93;;
84138;SDS011;74250;51.528;6.748;2024-01-16T04:49:05;8.90;;;4.13;;
84138;SDS011;74250;51.528;6.748;2024-01-16T04:51:31;9.95;;;3.65;;
84138;SDS011;74250;51.528;6.748;2024-01-16T04:53:56;5.28;;;3.58;;
84138;SDS011;74250;51.528;6.748;2024-01-16T04:56:21;10.80;;;4.13;;
84138;SDS011;74250;51.528;6.748;2024-01-16T04:58:47;5.63;;;2.65;;
84138;SDS011;74250;51.528;6.748;2024-01-16T05:01:12;4.88;;;2.55;;
84138;SDS011;74250;51.528;6.748;2024-01-16T05:03:38;7.00;;;2.50;;
84138;SDS011;74250;51.528;6.748;2024-01-16T05:06:03;7.47;;;3.00;;
84138;SDS011;74250;51.528;6.748;2024-01-16T05:08:29;6.05;;;3.13;;
84138;SDS011;74250;51.528;6.748;2024-01-16T05:10:55;8.10;;;3.25;;
84138;SDS011;74250;51.528;6.748;2024-01-16T05:13:21;6.45;;;2.85;;
84138;SDS011;74250;51.528;6.748;2024-01-16T05:15:46;8.52;;;2.92;;
84138;SDS011;74250;51.528;6.748;2024-01-16T05:18:12;5.20;;;2.13;;
84138;SDS011;74250;51.528;6.748;2024-01-16T05:20:37;6.35;;;3.90;;
84138;SDS011;74250;51.528;6.748;2024-01-16T05:23:02;7.05;;;2.17;;
84138;SDS011;74250;51.528;6.748;2024-01-16T05:25:28;4.63;;;2.25;;
84138;SDS011;74250;51.528;6.748;2024-01-16T05:27:53;5.63;;;2.35;;
84138;SDS011;74250;51.528;6.748;2024-01-16T05:30:18;5.15;;;2.50;;
84138;SDS011;74250;51.528;6.748;2024-01-16T05:32:44;7.53;;;2.63;;
84138;SDS011;74250;51.528;6.748;2024-01-16T05:35:09;6.40;;;2.17;;
84138;SDS011;74250;51.528;6.748;2024-01-16T05:37:35;7.18;;;4.20;;
84138;SDS011;74250;51.528;6.748;2024-01-16T05:40:00;3.85;;;1.70;;
84138;SDS011;74250;51.528;6.748;2024-01-16T05:44:54;7.63;;;1.85;;
84138;SDS011;74250;51.528;6.748;2024-01-16T05:47:19;6.43;;;2.78;;
84138;SDS011;74250;51.528;6.748;2024-01-16T05:49:44;6.28;;;2.60;;
84138;SDS011;74250;51.528;6.748;2024-01-16T05:52:09;7.63;;;2.92;;
84138;SDS011;74250;51.528;6.748;2024-01-16T05:54:35;6.20;;;2.53;;
84138;SDS011;74250;51.528;6.748;2024-01-16T05:57:00;8.88;;;3.38;;
84138;SDS011;74250;51.528;6.748;2024-01-16T05:59:26;10.30;;;5.43;;
84138;SDS011;74250;51.528;6.748;2024-01-16T06:01:51;9.43;;;5.40;;
84138;SDS011;74250;51.528;6.748;2024-01-16T06:04:16;12.52;;;5.45;;
84138;SDS011;74250;51.528;6.748;2024-01-16T06:06:42;9.57;;;5.53;;
84138;SDS011;74250;51.528;6.748;2024-01-16T06:09:10;14.65;;;6.65;;
84138;SDS011;74250;51.528;6.748;2024-01-16T06:11:38;14.38;;;7.97;;
84138;SDS011;74250;51.528;6.748;2024-01-16T06:14:05;13.18;;;7.45;;
84138;SDS011;74250;51.528;6.748;2024-01-16T06:16:32;12.30;;;7.35;;
84138;SDS011;74250;51.528;6.748;2024-01-16T06:18:58;12.82;;;6.82;;
84138;SDS011;74250;51.528;6.748;2024-01-16T06:21:23;18.58;;;8.80;;
84138;SDS011;74250;51.528;6.748;2024-01-16T06:23:49;18.88;;;12.55;;
84138;SDS011;74250;51.528;6.748;2024-01-16T06:26:14;16.50;;;10.82;;
84138;SDS011;74250;51.528;6.748;2024-01-16T06:28:40;15.52;;;8.77;;
84138;SDS011;74250;51.528;6.748;2024-01-16T06:31:07;18.50;;;10.13;;
84138;SDS011;74250;51.528;6.748;2024-01-16T06:33:33;17.25;;;10.18;;
84138;SDS011;74250;51.528;6.748;2024-01-16T06:35:59;17.73;;;9.73;;
84138;SDS011;74250;51.528;6.748;2024-01-16T06:38:24;22.73;;;11.43;;
84138;SDS011;74250;51.528;6.748;2024-01-16T06:40:50;22.08;;;12.05;;
84138;SDS011;74250;51.528;6.748;2024-01-16T06:43:15;25.98;;;11.00;;
84138;SDS011;74250;51.528;6.748;2024-01-16T06:45:43;16.33;;;10.18;;
84138;SDS011;74250;51.528;6.748;2024-01-16T06:48:09;19.77;;;9.95;;
84138;SDS011;74250;51.528;6.748;2024-01-16T06:50:34;14.43;;;8.20;;
84138;SDS011;74250;51.528;6.748;2024-01-16T06:53:00;14.77;;;8.77;;
84138;SDS011;74250;51.528;6.748;2024-01-16T06:55:26;20.55;;;10.38;;
84138;SDS011;74250;51.528;6.748;2024-01-16T06:57:51;16.63;;;8.18;;
84138;SDS011;74250;51.528;6.748;2024-01-16T07:00:16;13.02;;;6.97;;
84138;SDS011;74250;51.528;6.748;2024-01-16T07:02:42;10.75;;;6.50;;
84138;SDS011;74250;51.528;6.748;2024-01-16T07:05:11;11.23;;;6.47;;
84138;SDS011;74250;51.528;6.748;2024-01-16T07:07:36;13.20;;;5.85;;
84138;SDS011;74250;51.528;6.748;2024-01-16T07:10:02;15.63;;;6.43;;
84138;SDS011;74250;51.528;6.748;2024-01-16T07:12:27;11.02;;;5.95;;
84138;SDS011;74250;51.528;6.748;2024-01-16T07:14:53;10.05;;;5.03;;
84138;SDS011;74250;51.528;6.748;2024-01-16T07:17:19;11.80;;;5.85;;
84138;SDS011;74250;51.528;6.748;2024-01-16T07:19:44;11.27;;;5.63;;
84138;SDS011;74250;51.528;6.748;2024-01-16T07:22:09;13.00;;;5.70;;
84138;SDS011;74250;51.528;6.748;2024-01-16T07:24:35;8.35;;;5.05;;
84138;SDS011;74250;51.528;6.748;2024-01-16T07:27:00;11.27;;;5.72;;
84138;SDS011;74250;51.528;6.748;2024-01-16T07:29:25;11.68;;;5.93;;
84138;SDS011;74250;51.528;6.748;2024-01-16T07:31:51;13.77;;;6.18;;
84138;SDS011;74250;51.528;6.748;2024-01-16T07:34:17;13.27;;;5.15;;
84138;SDS011;74250;51.528;6.748;2024-01-16T07:36:46;11.95;;;4.80;;
84138;SDS011;74250;51.528;6.748;2024-01-16T07:39:12;10.63;;;5.45;;
84138;SDS011;74250;51.528;6.748;2024-01-16T07:41:37;8.80;;;4.55;;
84138;SDS011;74250;51.528;6.748;2024-01-16T07:44:03;10.82;;;5.78;;
84138;SDS011;74250;51.528;6.748;2024-01-16T07:46:28;11.27;;;5.57;;
84138;SDS011;74250;51.528;6.748;2024-01-16T07:48:54;12.05;;;5.18;;
84138;SDS011;74250;51.528;6.748;2024-01-16T07:51:19;12.45;;;6.32;;
84138;SDS011;74250;51.528;6.748;2024-01-16T07:53:44;7.57;;;4.80;;
84138;SDS011;74250;51.528;6.748;2024-01-16T07:56:10;9.85;;;4.82;;
84138;SDS011;74250;51.528;6.748;2024-01-16T07:58:36;8.95;;;3.90;;
84138;SDS011;74250;51.528;6.748;2024-01-16T08:01:01;9.93;;;4.15;;
84138;SDS011;74250;51.528;6.748;2024-01-16T08:03:27;7.38;;;3.40;;
84138;SDS011;74250;51.528;6.748;2024-01-16T08:05:53;10.02;;;4.07;;
84138;SDS011;74250;51.528;6.748;2024-01-16T08:08:18;10.18;;;3.97;;
84138;SDS011;74250;51.528;6.748;2024-01-16T08:10:43;8.55;;;3.72;;
84138;SDS011;74250;51.528;6.748;2024-01-16T08:13:09;9.55;;;4.60;;
84138;SDS011;74250;51.528;6.748;2024-01-16T08:15:34;9.60;;;3.75;;
84138;SDS011;74250;51.528;6.748;2024-01-16T08:18:00;9.77;;;4.13;;
84138;SDS011;74250;51.528;6.748;2024-01-16T08:20:25;9.52;;;3.63;;
84138;SDS011;74250;51.528;6.748;2024-01-16T08:22:51;9.02;;;3.67;;
84138;SDS011;74250;51.528;6.748;2024-01-16T08:25:16;14.48;;;4.13;;
84138;SDS011;74250;51.528;6.748;2024-01-16T08:27:41;15.88;;;3.95;;
84138;SDS011;74250;51.528;6.748;2024-01-16T08:30:08;9.00;;;4.18;;
84138;SDS011;74250;51.528;6.748;2024-01-16T08:32:35;10.38;;;3.80;;
84138;SDS011;74250;51.528;6.748;2024-01-16T08:35:00;7.43;;;1.98;;
84138;SDS011;74250;51.528;6.748;2024-01-16T08:37:25;6.63;;;3.08;;
84138;SDS011;74250;51.528;6.748;2024-01-16T08:39:51;10.40;;;4.35;;
84138;SDS011;74250;51.528;6.748;2024-01-16T08:42:17;8.20;;;2.25;;
84138;SDS011;74250;51.528;6.748;2024-01-16T08:44:43;7.15;;;2.78;;
84138;SDS011;74250;51.528;6.748;2024-01-16T08:47:08;8.50;;;2.22;;
84138;SDS011;74250;51.528;6.748;2024-01-16T08:49:34;9.00;;;2.20;;
84138;SDS011;74250;51.528;6.748;2024-01-16T08:52:00;5.22;;;2.13;;
84138;SDS011;74250;51.528;6.748;2024-01-16T08:54:25;4.22;;;2.38;;
84138;SDS011;74250;51.528;6.748;2024-01-16T08:56:51;7.78;;;4.30;;
84138;SDS011;74250;51.528;6.748;2024-01-16T08:59:17;7.05;;;2.53;;
84138;SDS011;74250;51.528;6.748;2024-01-16T09:01:43;9.30;;;2.42;;
84138;SDS011;74250;51.528;6.748;2024-01-16T09:04:08;7.40;;;2.80;;
84138;SDS011;74250;51.528;6.748;2024-01-16T09:06:33;7.10;;;2.20;;
84138;SDS011;74250;51.528;6.748;2024-01-16T09:08:59;11.90;;;2.97;;
84138;SDS011;74250;51.528;6.748;2024-01-16T09:11:24;4.80;;;2.53;;
84138;SDS011;74250;51.528;6.748;2024-01-16T09:13:50;6.85;;;2.50;;
84138;SDS011;74250;51.528;6.748;2024-01-16T09:16:16;6.25;;;2.33;;
84138;SDS011;74250;51.528;6.748;2024-01-16T09:18:41;8.85;;;2.10;;
84138;SDS011;74250;51.528;6.748;2024-01-16T09:21:07;5.93;;;2.28;;
84138;SDS011;74250;51.528;6.748;2024-01-16T09:23:32;7.43;;;2.40;;
84138;SDS011;74250;51.528;6.748;2024-01-16T09:25:57;6.47;;;1.98;;
84138;SDS011;74250;51.528;6.748;2024-01-16T09:28:39;7.80;;;3.72;;
84138;SDS011;74250;51.528;6.748;2024-01-16T09:31:08;9.93;;;3.08;;
84138;SDS011;74250;51.528;6.748;2024-01-16T09:33:33;6.80;;;2.25;;
84138;SDS011;74250;51.528;6.748;2024-01-16T09:35:59;12.65;;;3.25;;
84138;SDS011;74250;51.528;6.748;2024-01-16T09:38:25;8.77;;;4.05;;
84138;SDS011;74250;51.528;6.748;2024-01-16T09:40:50;9.82;;;3.22;;
84138;SDS011;74250;51.528;6.748;2024-01-16T09:43:17;8.32;;;2.35;;
84138;SDS011;74250;51.528;6.748;2024-01-16T09:45:43;8.90;;;2.55;;
84138;SDS011;74250;51.528;6.748;2024-01-16T09:48:10;5.72;;;2.38;;
84138;SDS011;74250;51.528;6.748;2024-01-16T09:50:35;8.90;;;2.10;;
84138;SDS011;74250;51.528;6.748;2024-01-16T09:53:01;9.73;;;3.30;;
84138;SDS011;74250;51.528;6.748;2024-01-16T09:55:26;10.10;;;2.47;;
84138;SDS011;74250;51.528;6.748;2024-01-16T09:57:52;9.88;;;2.70;;
84138;SDS011;74250;51.528;6.748;2024-01-16T10:00:21;9.05;;;3.30;;
84138;SDS011;74250;51.528;6.748;2024-01-16T10:02:46;10.55;;;2.95;;
84138;SDS011;74250;51.528;6.748;2024-01-16T10:05:12;9.45;;;3.13;;
84138;SDS011;74250;51.528;6.748;2024-01-16T10:07:38;8.98;;;4.15;;
84138;SDS011;74250;51.528;6.748;2024-01-16T10:10:05;9.38;;;2.85;;
84138;SDS011;74250;51.528;6.748;2024-01-16T10:12:32;6.22;;;2.60;;
84138;SDS011;74250;51.528;6.748;2024-01-16T10:14:58;7.25;;;2.70;;
84138;SDS011;74250;51.528;6.748;2024-01-16T10:17:40;10.35;;;3.70;;
84138;SDS011;74250;51.528;6.748;2024-01-16T10:20:07;8.70;;;3.80;;
84138;SDS011;74250;51.528;6.748;2024-01-16T10:22:38;6.18;;;3.92;;
84138;SDS011;74250;51.528;6.748;2024-01-16T10:25:04;10.02;;;3.90;;
84138;SDS011;74250;51.528;6.748;2024-01-16T10:27:30;8.63;;;2.85;;
84138;SDS011;74250;51.528;6.748;2024-01-16T10:29:56;12.25;;;5.65;;
84138;SDS011;74250;51.528;6.748;2024-01-16T10:32:35;12.13;;;6.32;;
84138;SDS011;74250;51.528;6.748;2024-01-16T10:37:29;8.38;;;2.58;;
84138;SDS011;74250;51.528;6.748;2024-01-16T10:39:54;8.43;;;3.80;;
84138;SDS011;74250;51.528;6.748;2024-01-16T10:42:20;11.07;;;3.60;;
84138;SDS011;74250;51.528;6.748;2024-01-16T10:44:54;12.10;;;3.33;;
84138;SDS011;74250;51.528;6.748;2024-01-16T10:47:22;9.27;;;2.97;;
84138;SDS011;74250;51.528;6.748;2024-01-16T10:49:48;7.32;;;3.28;;
84138;SDS011;74250;51.528;6.748;2024-01-16T10:52:14;8.60;;;2.40;;
84138;SDS011;74250;51.528;6.748;2024-01-16T10:54:42;7.93;;;3.42;;
84138;SDS011;74250;51.528;6.748;2024-01-16T10:57:12;10.95;;;3.63;;
84138;SDS011;74250;51.528;6.748;2024-01-16T11:02:23;6.68;;;3.08;;
84138;SDS011;74250;51.528;6.748;2024-01-16T11:04:49;12.10;;;3.88;;
84138;SDS011;74250;51.528;6.748;2024-01-16T11:07:18;9.07;;;3.58;;
84138;SDS011;74250;51.528;6.748;2024-01-16T11:09:44;9.50;;;3.60;;
84138;SDS011;74250;51.528;6.748;2024-01-16T11:12:09;7.43;;;4.38;;
84138;SDS011;74250;51.528;6.748;2024-01-16T11:14:36;11.90;;;4.03;;
84138;SDS011;74250;51.528;6.748;2024-01-16T11:17:02;16.23;;;7.97;;
84138;SDS011;74250;51.528;6.748;2024-01-16T11:19:28;11.25;;;4.80;;
84138;SDS011;74250;51.528;6.748;2024-01-16T11:21:55;9.25;;;5.78;;
84138;SDS011;74250;51.528;6.748;2024-01-16T11:24:21;8.77;;;3.03;;
84138;SDS011;74250;51.528;6.748;2024-01-16T11:26:46;8.85;;;3.83;;
84138;SDS011;74250;51.528;6.748;2024-01-16T11:29:45;5.30;;;2.47;;
84138;SDS011;74250;51.528;6.748;2024-01-16T11:32:03;7.97;;;3.28;;
84138;SDS011;74250;51.528;6.748;2024-01-16T11:37:14;8.35;;;5.07;;
84138;SDS011;74250;51.528;6.748;2024-01-16T11:39:40;7.35;;;3.30;;
84138;SDS011;74250;51.528;6.748;2024-01-16T11:42:05;9.20;;;3.53;;
84138;SDS011;74250;51.528;6.748;2024-01-16T11:47:15;6.88;;;3.45;;
84138;SDS011;74250;51.528;6.748;2024-01-16T11:49:41;10.38;;;4.15;;
84138;SDS011;74250;51.528;6.748;2024-01-16T11:52:07;6.88;;;3.85;;
84138;SDS011;74250;51.528;6.748;2024-01-16T11:54:33;10.05;;;3.50;;
84138;SDS011;74250;51.528;6.748;2024-01-16T11:59:59;10.05;;;3.75;;
84138;SDS011;74250;51.528;6.748;2024-01-16T12:02:34;9.05;;;3.92;;
84138;SDS011;74250;51.528;6.748;2024-01-16T12:05:06;9.93;;;3.25;;
84138;SDS011;74250;51.528;6.748;2024-01-16T12:08:05;11.93;;;3.47;;
84138;SDS011;74250;51.528;6.748;2024-01-16T12:10:24;9.00;;;3.15;;
84138;SDS011;74250;51.528;6.748;2024-01-16T12:12:50;9.93;;;4.07;;
84138;SDS011;74250;51.528;6.748;2024-01-16T12:15:17;9.05;;;3.88;;
84138;SDS011;74250;51.528;6.748;2024-01-16T12:17:56;11.02;;;3.97;;
84138;SDS011;74250;51.528;6.748;2024-01-16T12:20:26;5.72;;;2.90;;
84138;SDS011;74250;51.528;6.748;2024-01-16T12:22:56;11.02;;;2.92;;
84138;SDS011;74250;51.528;6.748;2024-01-16T12:25:23;6.65;;;2.40;;
84138;SDS011;74250;51.528;6.748;2024-01-16T12:27:56;6.38;;;2.78;;
84138;SDS011;74250;51.528;6.748;2024-01-16T12:30:25;6.80;;;2.95;;
84138;SDS011;74250;51.528;6.748;2024-01-16T12:33:02;7.15;;;3.42;;
84138;SDS011;74250;51.528;6.748;2024-01-16T12:35:32;6.32;;;2.78;;
84138;SDS011;74250;51.528;6.748;2024-01-16T12:38:01;9.73;;;2.75;;
84138;SDS011;74250;51.528;6.748;2024-01-16T12:40:28;8.95;;;3.17;;
84138;SDS011;74250;51.528;6.748;2024-01-16T12:42:53;9.63;;;3.22;;
84138;SDS011;74250;51.528;6.748;2024-01-16T12:45:19;8.57;;;3.75;;
84138;SDS011;74250;51.528;6.748;2024-01-16T12:47:49;9.57;;;2.78;;
84138;SDS011;74250;51.528;6.748;2024-01-16T12:50:22;8.35;;;3.00;;
84138;SDS011;74250;51.528;6.748;2024-01-16T12:55:38;10.90;;;3.97;;
84138;SDS011;74250;51.528;6.748;2024-01-16T12:58:12;9.88;;;4.07;;
84138;SDS011;74250;51.528;6.748;2024-01-16T13:00:37;12.07;;;3.45;;
84138;SDS011;74250;51.528;6.748;2024-01-16T13:05:29;11.63;;;4.40;;
84138;SDS011;74250;51.528;6.748;2024-01-16T13:08:01;10.27;;;4.60;;
84138;SDS011;74250;51.528;6.748;2024-01-16T13:10:28;10.07;;;3.35;;
84138;SDS011;74250;51.528;6.748;2024-01-16T13:13:10;12.18;;;4.43;;
84138;SDS011;74250;51.528;6.748;2024-01-16T13:15:40;11.15;;;4.40;;
84138;SDS011;74250;51.528;6.748;2024-01-16T13:18:05;10.23;;;4.35;;
84138;SDS011;74250;51.528;6.748;2024-01-16T13:20:31;7.47;;;5.53;;
84138;SDS011;74250;51.528;6.748;2024-01-16T13:22:56;9.00;;;3.10;;
84138;SDS011;74250;51.528;6.748;2024-01-16T13:25:22;4.28;;;2.72;;
84138;SDS011;74250;51.528;6.748;2024-01-16T13:27:47;8.98;;;3.30;;
84138;SDS011;74250;51.528;6.748;2024-01-16T13:30:12;8.45;;;2.97;;
84138;SDS011;74250;51.528;6.748;2024-01-16T13:32:38;9.38;;;5.00;;
84138;SDS011;74250;51.528;6.748;2024-01-16T13:35:03;14.32;;;3.45;;
84138;SDS011;74250;51.528;6.748;2024-01-16T13:37:32;11.13;;;4.00;;
84138;SDS011;74250;51.528;6.748;2024-01-16T13:39:58;7.43;;;2.90;;
84138;SDS011;74250;51.528;6.748;2024-01-16T13:42:23;9.18;;;4.07;;
84138;SDS011;74250;51.528;6.748;2024-01-16T13:44:49;8.82;;;3.40;;
84138;SDS011;74250;51.528;6.748;2024-01-16T13:47:14;8.98;;;3.60;;
84138;SDS011;74250;51.528;6.748;2024-01-16T13:49:40;7.90;;;3.72;;
84138;SDS011;74250;51.528;6.748;2024-01-16T13:52:06;11.68;;;3.92;;
84138;SDS011;74250;51.528;6.748;2024-01-16T13:54:31;10.50;;;3.97;;
84138;SDS011;74250;51.528;6.748;2024-01-16T13:56:56;8.98;;;4.35;;
84138;SDS011;74250;51.528;6.748;2024-01-16T13:59:22;14.95;;;5.63;;
84138;SDS011;74250;51.528;6.748;2024-01-16T14:01:47;11.18;;;4.40;;
84138;SDS011;74250;51.528;6.748;2024-01-16T14:04:13;9.82;;;3.78;;
84138;SDS011;74250;51.528;6.748;2024-01-16T14:06:39;7.45;;;3.67;;
84138;SDS011;74250;51.528;6.748;2024-01-16T14:09:04;9.18;;;3.75;;
84138;SDS011;74250;51.528;6.748;2024-01-16T14:11:32;10.02;;;4.50;;
84138;SDS011;74250;51.528;6.748;2024-01-16T14:13:58;7.72;;;3.65;;
84138;SDS011;74250;51.528;6.748;2024-01-16T14:16:23;8.98;;;5.18;;
84138;SDS011;74250;51.528;6.748;2024-01-16T14:18:48;8.93;;;3.38;;
84138;SDS011;74250;51.528;6.748;2024-01-16T14:21:14;8.07;;;3.50;;
84138;SDS011;74250;51.528;6.748;2024-01-16T14:23:39;9.82;;;3.35;;
84138;SDS011;74250;51.528;6.748;2024-01-16T14:26:04;7.60;;;3.67;;
84138;SDS011;74250;51.528;6.748;2024-01-16T14:28:30;6.70;;;3.75;;
84138;SDS011;74250;51.528;6.748;2024-01-16T14:30:55;7.30;;;3.67;;
84138;SDS011;74250;51.528;6.748;2024-01-16T14:33:20;12.07;;;3.42;;
84138;SDS011;74250;51.528;6.748;2024-01-16T14:35:46;8.45;;;3.28;;
84138;SDS011;74250;51.528;6.748;2024-01-16T14:38:12;8.38;;;4.03;;
84138;SDS011;74250;51.528;6.748;2024-01-16T14:40:37;8.00;;;3.22;;
84138;SDS011;74250;51.528;6.748;2024-01-16T14:43:03;9.13;;;4.43;;
84138;SDS011;74250;51.528;6.748;2024-01-16T14:45:30;5.75;;;2.78;;
84138;SDS011;74250;51.528;6.748;2024-01-16T14:47:56;9.48;;;3.90;;
84138;SDS011;74250;51.528;6.748;2024-01-16T14:50:22;10.25;;;3.22;;
84138;SDS011;74250;51.528;6.748;2024-01-16T14:52:49;8.93;;;3.45;;
84138;SDS011;74250;51.528;6.748;2024-01-16T14:55:14;11.00;;;4.30;;
84138;SDS011;74250;51.528;6.748;2024-01-16T14:57:40;9.73;;;4.30;;
84138;SDS011;74250;51.528;6.748;2024-01-16T15:02:52;6.72;;;3.10;;
84138;SDS011;74250;51.528;6.748;2024-01-16T15:05:20;8.57;;;2.92;;
84138;SDS011;74250;51.528;6.748;2024-01-16T15:07:46;11.07;;;4.13;;